createdAt,value
2019-02-14T00:00:11.405Z,51.90
2019-02-14T00:02:58.680Z,51.80
2019-02-14T00:05:44.136Z,51.70
2019-02-14T00:08:29.587Z,51.70
2019-02-14T00:11:14.992Z,51.70
2019-02-14T00:14:00.772Z,51.70
2019-02-14T00:16:46.223Z,51.70
2019-02-14T00:19:31.867Z,51.60
2019-02-14T00:22:17.427Z,51.70
2019-02-14T00:25:03.028Z,51.50
2019-02-14T00:27:49.803Z,51.60
2019-02-14T00:30:35.254Z,51.60
2019-02-14T00:33:20.817Z,51.50
2019-02-14T00:36:06.299Z,51.60
2019-02-14T00:38:51.735Z,51.50
2019-02-14T00:41:37.454Z,51.60
2019-02-14T00:44:22.899Z,51.50
2019-02-14T00:47:08.534Z,51.60
2019-02-14T00:49:54.016Z,51.50
2019-02-14T00:52:39.551Z,51.40
2019-02-14T00:55:25.168Z,51.50
2019-02-14T00:58:10.596Z,51.40
2019-02-14T01:00:56.268Z,51.50
2019-02-14T01:03:41.719Z,51.50
2019-02-14T01:06:27.488Z,51.30
2019-02-14T01:09:13.176Z,51.40
2019-02-14T01:11:58.912Z,51.30
2019-02-14T01:14:44.621Z,51.30
2019-02-14T01:17:30.187Z,51.40
2019-02-14T01:20:15.887Z,51.30
2019-02-14T01:23:01.804Z,51.70
2019-02-14T01:25:47.392Z,51.90
2019-02-14T01:28:33.071Z,52.20
2019-02-14T01:31:18.645Z,52.00
2019-02-14T01:34:04.569Z,52.60
2019-02-14T01:36:50.123Z,53.20
2019-02-14T01:39:35.736Z,52.70
2019-02-14T01:42:21.414Z,53.30
2019-02-14T01:45:07.760Z,53.30
2019-02-14T01:47:53.444Z,53.50
2019-02-14T01:50:39.250Z,53.30
2019-02-14T01:53:24.992Z,53.70
2019-02-14T01:56:10.773Z,53.60
2019-02-14T01:58:56.483Z,53.50
2019-02-14T02:01:42.156Z,53.80
2019-02-14T02:04:28.113Z,53.60
2019-02-14T02:07:13.701Z,53.50
2019-02-14T02:09:59.684Z,53.40
2019-02-14T02:12:45.509Z,53.30
2019-02-14T02:15:31.267Z,53.70
2019-02-14T02:18:17.153Z,53.60
2019-02-14T02:21:02.558Z,53.40
2019-02-14T02:23:50.132Z,53.90
2019-02-14T02:26:36.087Z,54.10
2019-02-14T02:29:21.627Z,54.20
2019-02-14T02:32:07.333Z,54.10
2019-02-14T02:34:54.184Z,54.10
2019-02-14T02:37:39.826Z,54.00
2019-02-14T02:40:25.670Z,53.90
2019-02-14T02:43:11.404Z,53.90
2019-02-14T02:45:57.120Z,54.00
2019-02-14T02:48:43.155Z,53.90
2019-02-14T02:51:28.915Z,53.80
2019-02-14T02:54:14.648Z,53.80
2019-02-14T02:57:00.740Z,53.80
2019-02-14T02:59:46.312Z,53.90
2019-02-14T03:02:32.017Z,53.70
2019-02-14T03:05:17.741Z,53.70
2019-02-14T03:08:03.413Z,53.60
2019-02-14T03:10:49.256Z,53.50
2019-02-14T03:13:34.904Z,53.50
2019-02-14T03:16:20.676Z,53.50
2019-02-14T03:19:06.525Z,53.40
2019-02-14T03:21:52.160Z,53.40
2019-02-14T03:24:37.991Z,53.30
2019-02-14T03:27:23.671Z,53.60
2019-02-14T03:30:09.933Z,53.60
2019-02-14T03:32:55.554Z,53.60
2019-02-14T03:35:41.244Z,53.50
2019-02-14T03:38:27.212Z,53.60
2019-02-14T03:41:12.892Z,53.40
2019-02-14T03:43:58.719Z,53.50
2019-02-14T03:46:44.557Z,54.00
2019-02-14T03:49:30.245Z,53.50
2019-02-14T03:52:16.064Z,53.30
2019-02-14T03:55:01.680Z,54.20
2019-02-14T03:57:47.448Z,53.60
2019-02-14T04:00:33.210Z,53.70
2019-02-14T04:03:18.864Z,53.90
2019-02-14T04:06:04.584Z,54.20
2019-02-14T04:08:50.370Z,54.30
2019-02-14T04:11:36.036Z,54.20
2019-02-14T04:14:21.868Z,54.30
2019-02-14T04:17:07.461Z,54.20
2019-02-14T04:19:53.440Z,54.40
2019-02-14T04:22:39.107Z,54.00
2019-02-14T04:25:24.826Z,54.10
2019-02-14T04:28:13.340Z,54.30
2019-02-14T04:30:58.883Z,55.00
2019-02-14T04:33:44.626Z,54.20
2019-02-14T04:36:35.712Z,54.20
2019-02-14T04:39:17.924Z,54.00
2019-02-14T04:42:03.383Z,54.00
2019-02-14T04:44:48.904Z,54.00
2019-02-14T04:47:34.749Z,54.00
2019-02-14T04:50:20.525Z,54.00
2019-02-14T04:53:06.452Z,54.00
2019-02-14T04:55:52.156Z,53.80
2019-02-14T04:58:37.955Z,53.60
2019-02-14T05:01:23.604Z,53.50
2019-02-14T05:04:09.436Z,53.50
2019-02-14T05:06:55.097Z,53.50
2019-02-14T05:09:40.916Z,53.40
2019-02-14T05:12:26.855Z,53.50
2019-02-14T05:15:12.511Z,53.50
2019-02-14T05:17:59.229Z,53.50
2019-02-14T05:20:45.212Z,53.60
2019-02-14T05:23:30.880Z,53.50
2019-02-14T05:26:16.876Z,53.50
2019-02-14T05:29:02.525Z,53.60
2019-02-14T05:31:48.077Z,53.70
2019-02-14T05:34:33.908Z,53.70
2019-02-14T05:37:19.653Z,53.80
2019-02-14T05:40:05.896Z,53.80
2019-02-14T05:42:51.528Z,53.70
2019-02-14T05:45:37.268Z,53.80
2019-02-14T05:48:23.237Z,53.80
2019-02-14T05:51:08.719Z,53.60
2019-02-14T05:53:54.441Z,53.70
2019-02-14T05:56:40.080Z,53.70
2019-02-14T05:59:25.739Z,53.60
2019-02-14T06:02:11.544Z,53.80
2019-02-14T06:04:57.350Z,53.60
2019-02-14T06:07:43.045Z,53.40
2019-02-14T06:10:28.660Z,53.40
2019-02-14T06:13:14.384Z,53.30
2019-02-14T06:16:00.226Z,53.50
2019-02-14T06:18:45.813Z,53.50
2019-02-14T06:21:31.521Z,53.50
2019-02-14T06:24:17.256Z,53.70
2019-02-14T06:27:02.983Z,53.70
2019-02-14T06:29:48.679Z,53.60
2019-02-14T06:32:35.408Z,53.70
2019-02-14T06:35:21.123Z,53.60
2019-02-14T06:38:07.114Z,53.60
2019-02-14T06:40:52.726Z,53.70
2019-02-14T06:43:38.667Z,53.90
2019-02-14T06:46:24.325Z,54.10
2019-02-14T06:49:10.057Z,54.50
2019-02-14T06:51:55.930Z,54.60
2019-02-14T06:54:41.549Z,54.80
2019-02-14T06:57:28.362Z,54.60
2019-02-14T07:00:14.348Z,55.10
2019-02-14T07:02:59.995Z,54.40
2019-02-14T07:05:45.925Z,54.60
2019-02-14T07:08:32.068Z,54.80
2019-02-14T07:11:17.752Z,55.00
2019-02-14T07:14:03.603Z,54.90
2019-02-14T07:16:50.280Z,55.00
2019-02-14T07:19:36.029Z,55.10
2019-02-14T07:22:22.000Z,55.30
2019-02-14T07:25:07.920Z,55.20
2019-02-14T07:27:53.465Z,55.20
2019-02-14T07:30:39.181Z,55.50
2019-02-14T07:33:24.924Z,55.60
2019-02-14T07:36:10.755Z,55.60
2019-02-14T07:38:56.507Z,55.60
2019-02-14T07:41:42.184Z,55.70
2019-02-14T07:44:27.940Z,55.90
2019-02-14T07:47:13.493Z,56.00
2019-02-14T07:49:59.410Z,56.00
2019-02-14T07:52:45.115Z,55.90
2019-02-14T07:55:30.936Z,56.00
2019-02-14T07:58:16.658Z,56.20
2019-02-14T08:01:02.383Z,56.20
2019-02-14T08:03:48.335Z,56.20
2019-02-14T08:06:33.998Z,56.50
2019-02-14T08:09:19.677Z,56.30
2019-02-14T08:12:05.432Z,56.30
2019-02-14T08:14:51.066Z,56.40
2019-02-14T08:17:36.957Z,56.40
2019-02-14T08:20:22.694Z,56.30
2019-02-14T08:23:08.406Z,56.50
2019-02-14T08:25:54.112Z,56.60
2019-02-14T08:28:39.808Z,56.80
2019-02-14T08:31:25.729Z,56.90
2019-02-14T08:34:11.404Z,57.20
2019-02-14T08:36:57.072Z,57.50
2019-02-14T08:39:42.931Z,57.90
2019-02-14T08:42:28.679Z,57.80
2019-02-14T08:45:14.359Z,57.90
2019-02-14T08:48:00.160Z,57.60
2019-02-14T08:50:46.676Z,57.50
2019-02-14T08:53:32.587Z,57.30
2019-02-14T08:56:18.289Z,57.00
2019-02-14T08:59:04.028Z,56.80
2019-02-14T09:01:49.928Z,56.40
2019-02-14T09:04:35.608Z,56.10
2019-02-14T09:07:21.386Z,56.00
2019-02-14T09:10:08.025Z,55.30
2019-02-14T09:12:53.462Z,54.90
2019-02-14T09:15:39.740Z,54.50
2019-02-14T09:18:25.368Z,54.70
2019-02-14T09:21:11.304Z,54.20
2019-02-14T09:23:56.944Z,54.10
2019-02-14T09:26:42.807Z,54.20
2019-02-14T09:29:28.576Z,54.00
2019-02-14T09:32:16.140Z,53.80
2019-02-14T09:35:01.593Z,53.70
2019-02-14T09:37:47.479Z,53.00
2019-02-14T09:40:33.157Z,52.30
2019-02-14T09:43:18.787Z,51.90
2019-02-14T09:46:04.582Z,52.00
2019-02-14T09:48:50.188Z,51.70
2019-02-14T09:51:36.193Z,52.00
2019-02-14T09:54:21.880Z,51.70
2019-02-14T09:57:07.627Z,51.30
2019-02-14T09:59:53.397Z,50.60
2019-02-14T10:02:39.131Z,51.30
2019-02-14T10:05:24.868Z,50.60
2019-02-14T10:08:12.745Z,50.40
2019-02-14T10:10:58.439Z,50.20
2019-02-14T10:13:44.343Z,50.10
2019-02-14T10:16:30.114Z,49.30
2019-02-14T10:19:15.752Z,49.50
2019-02-14T10:22:01.812Z,49.00
2019-02-14T10:24:47.429Z,48.50
2019-02-14T10:27:33.312Z,48.80
2019-02-14T10:30:18.892Z,49.10
2019-02-14T10:33:05.480Z,48.40
2019-02-14T10:35:51.255Z,48.20
2019-02-14T10:38:36.891Z,48.30
2019-02-14T10:41:22.638Z,48.20
2019-02-14T10:44:08.311Z,48.00
2019-02-14T10:46:54.006Z,47.50
2019-02-14T10:49:39.861Z,46.40
2019-02-14T10:52:25.532Z,46.60
2019-02-14T10:55:11.192Z,46.70
2019-02-14T10:57:56.929Z,46.20
2019-02-14T11:00:42.635Z,46.00
2019-02-14T11:03:28.515Z,46.40
2019-02-14T11:06:14.182Z,45.80
2019-02-14T11:08:59.956Z,46.50
2019-02-14T11:11:45.624Z,45.30
2019-02-14T11:14:31.453Z,45.30
2019-02-14T11:17:17.276Z,44.80
2019-02-14T11:20:03.091Z,44.80
2019-02-14T11:22:49.790Z,44.60
2019-02-14T11:25:35.575Z,43.50
2019-02-14T11:28:21.152Z,44.70
2019-02-14T11:31:07.059Z,44.70
2019-02-14T11:33:52.675Z,44.90
2019-02-14T11:36:38.362Z,44.40
2019-02-14T11:39:24.202Z,43.90
2019-02-14T11:42:09.930Z,44.10
2019-02-14T11:44:55.700Z,43.90
2019-02-14T11:47:41.455Z,42.30
2019-02-14T11:50:27.684Z,42.30
2019-02-14T11:53:14.262Z,43.00
2019-02-14T11:56:00.210Z,43.00
2019-02-14T11:58:45.961Z,42.20
2019-02-14T12:01:31.739Z,42.60
2019-02-14T12:04:17.432Z,42.60
2019-02-14T12:07:03.160Z,42.50
2019-02-14T12:09:48.834Z,41.40
2019-02-14T12:12:34.612Z,42.10
2019-02-14T12:15:20.516Z,41.80
2019-02-14T12:18:06.111Z,40.20
2019-02-14T12:20:51.771Z,41.40
2019-02-14T12:23:37.391Z,41.20
2019-02-14T12:26:23.063Z,41.00
2019-02-14T12:29:08.947Z,41.70
2019-02-14T12:31:54.460Z,42.10
2019-02-14T12:34:40.196Z,40.90
2019-02-14T12:37:25.924Z,40.90
2019-02-14T12:40:11.589Z,41.70
2019-02-14T12:42:57.453Z,40.80
2019-02-14T12:45:43.327Z,41.50
2019-02-14T12:48:28.925Z,41.10
2019-02-14T12:51:14.611Z,40.80
2019-02-14T12:54:00.375Z,41.10
2019-02-14T12:56:46.090Z,41.50
2019-02-14T12:59:31.755Z,41.20
2019-02-14T13:02:17.476Z,41.20
2019-02-14T13:05:03.883Z,41.10
2019-02-14T13:07:49.549Z,41.20
2019-02-14T13:10:35.297Z,41.70
2019-02-14T13:13:20.850Z,41.10
2019-02-14T13:16:06.559Z,40.50
2019-02-14T13:18:52.307Z,40.20
2019-02-14T13:21:38.068Z,39.90
2019-02-14T13:24:23.712Z,40.20
2019-02-14T13:27:09.423Z,40.50
2019-02-14T13:29:55.109Z,41.10
2019-02-14T13:32:41.124Z,40.20
2019-02-14T13:35:26.607Z,39.30
2019-02-14T13:38:12.452Z,39.30
2019-02-14T13:40:58.945Z,39.00
2019-02-14T13:43:44.680Z,38.80
2019-02-14T13:46:30.512Z,39.00
2019-02-14T13:49:16.136Z,38.90
2019-02-14T13:52:01.860Z,39.00
2019-02-14T13:54:47.583Z,39.50
2019-02-14T13:57:33.215Z,39.60
2019-02-14T14:00:20.227Z,40.20
2019-02-14T14:03:05.579Z,40.00
2019-02-14T14:05:51.289Z,39.90
2019-02-14T14:08:37.144Z,39.70
2019-02-14T14:11:22.795Z,39.50
2019-02-14T14:14:08.505Z,39.40
2019-02-14T14:16:54.223Z,39.30
2019-02-14T14:19:39.859Z,38.90
2019-02-14T14:22:25.795Z,38.90
2019-02-14T14:25:11.466Z,39.40
2019-02-14T14:27:57.119Z,39.10
2019-02-14T14:30:44.858Z,39.30
2019-02-14T14:33:30.483Z,39.20
2019-02-14T14:36:16.282Z,39.60
2019-02-14T14:39:02.134Z,40.00
2019-02-14T14:41:49.820Z,40.30
2019-02-14T14:44:46.245Z,40.20
2019-02-14T14:47:31.943Z,40.20
2019-02-14T14:50:17.740Z,40.00
2019-02-14T14:53:03.282Z,40.00
2019-02-14T14:55:49.138Z,39.60
2019-02-14T14:58:34.930Z,39.50
2019-02-14T15:01:20.624Z,39.50
2019-02-14T15:04:06.389Z,39.40
2019-02-14T15:06:52.296Z,39.60
2019-02-14T15:09:37.920Z,39.80
2019-02-14T15:12:23.602Z,39.50
2019-02-14T15:15:09.359Z,39.20
2019-02-14T15:17:55.069Z,39.50
2019-02-14T15:20:40.719Z,39.50
2019-02-14T15:23:26.440Z,39.60
2019-02-14T15:26:12.296Z,39.70
2019-02-14T15:28:57.854Z,39.80
2019-02-14T15:31:43.686Z,40.10
2019-02-14T15:34:29.364Z,39.90
2019-02-14T15:37:15.376Z,39.70
2019-02-14T15:40:09.249Z,40.00
2019-02-14T15:42:50.424Z,40.80
2019-02-14T15:45:36.116Z,39.80
2019-02-14T15:48:22.898Z,40.10
2019-02-14T15:51:08.592Z,40.00
2019-02-14T15:53:54.294Z,40.70
2019-02-14T15:56:40.154Z,40.70
2019-02-14T15:59:25.758Z,41.10
2019-02-14T16:02:11.505Z,41.00
2019-02-14T16:04:57.089Z,41.00
2019-02-14T16:07:42.823Z,41.40
2019-02-14T16:10:29.700Z,41.60
2019-02-14T16:12:57.144Z,41.90
2019-02-14T16:15:24.484Z,42.00
2019-02-14T16:17:53.491Z,42.10
2019-02-14T16:20:22.540Z,42.20
2019-02-14T16:23:08.171Z,42.50
2019-02-14T16:25:54.079Z,42.60
2019-02-14T16:28:39.931Z,42.60
2019-02-14T16:31:25.316Z,42.70
2019-02-14T16:34:11.040Z,42.80
2019-02-14T16:36:56.509Z,42.80
2019-02-14T16:39:51.285Z,42.80
2019-02-14T16:42:29.683Z,42.80
2019-02-14T16:45:15.152Z,42.80
2019-02-14T16:48:00.844Z,42.90
2019-02-14T16:50:46.327Z,42.80
2019-02-14T16:53:32.349Z,43.00
2019-02-14T16:56:17.718Z,43.30
2019-02-14T16:59:03.050Z,43.40
2019-02-14T17:01:49.587Z,43.70
2019-02-14T17:04:35.151Z,43.60
2019-02-14T17:07:20.550Z,43.50
2019-02-14T17:10:07.040Z,43.60
2019-02-14T17:12:52.971Z,43.90
2019-02-14T17:15:38.335Z,44.20
2019-02-14T17:18:23.824Z,44.30
2019-02-14T17:21:09.336Z,44.10
2019-02-14T17:23:54.963Z,44.20
2019-02-14T17:26:40.429Z,44.40
2019-02-14T17:29:26.009Z,44.60
2019-02-14T17:32:11.439Z,45.30
2019-02-14T17:34:56.880Z,45.10
2019-02-14T17:37:42.478Z,45.10
2019-02-14T17:40:27.899Z,45.50
2019-02-14T17:43:13.419Z,45.50
2019-02-14T17:45:58.884Z,45.30
2019-02-14T17:48:44.381Z,45.40
2019-02-14T17:51:29.990Z,46.30
2019-02-14T17:54:15.435Z,45.80
2019-02-14T17:57:01.260Z,46.10
2019-02-14T17:59:46.734Z,46.50
2019-02-14T18:02:32.629Z,46.50
2019-02-14T18:05:18.504Z,46.10
2019-02-14T18:08:04.045Z,46.00
2019-02-14T18:10:55.005Z,46.10
2019-02-14T18:13:37.239Z,46.40
2019-02-14T18:16:22.685Z,46.70
2019-02-14T18:19:08.253Z,47.00
2019-02-14T18:21:53.917Z,46.30
2019-02-14T18:24:21.100Z,46.50
2019-02-14T18:26:48.213Z,46.70
2019-02-14T18:29:15.408Z,47.20
2019-02-14T18:31:42.548Z,47.60
2019-02-14T18:34:09.636Z,47.70
2019-02-14T18:36:36.886Z,47.90
2019-02-14T18:39:05.125Z,47.60
2019-02-14T18:41:33.126Z,47.90
2019-02-14T18:44:00.343Z,48.20
2019-02-14T18:46:27.632Z,48.30
2019-02-14T18:48:54.733Z,48.40
2019-02-14T18:51:21.945Z,48.40
2019-02-14T18:53:49.056Z,48.30
2019-02-14T18:56:16.292Z,48.50
2019-02-14T18:58:43.433Z,48.70
2019-02-14T19:01:10.549Z,48.70
2019-02-14T19:03:37.711Z,48.70
2019-02-14T19:06:04.845Z,48.80
2019-02-14T19:08:32.059Z,48.80
2019-02-14T19:10:59.205Z,48.90
2019-02-14T19:13:26.361Z,48.80
2019-02-14T19:15:53.505Z,48.70
2019-02-14T19:18:20.640Z,48.80
2019-02-14T19:20:47.783Z,48.80
2019-02-14T19:23:23.416Z,48.70
2019-02-14T19:25:44.167Z,48.70
2019-02-14T19:28:11.309Z,48.80
2019-02-14T19:30:38.463Z,48.70
2019-02-14T19:33:05.807Z,48.70
2019-02-14T19:35:32.993Z,48.70
2019-02-14T19:38:00.132Z,48.60
2019-02-14T19:40:28.612Z,48.60
2019-02-14T19:42:55.727Z,48.60
2019-02-14T19:45:22.943Z,48.80
2019-02-14T19:47:50.036Z,48.90
2019-02-14T19:50:17.199Z,48.90
2019-02-14T19:52:44.327Z,48.90
2019-02-14T19:55:11.449Z,49.00
2019-02-14T19:57:38.661Z,49.00
2019-02-14T20:00:09.087Z,49.00
2019-02-14T20:02:36.569Z,49.10
2019-02-14T20:05:05.323Z,49.30
2019-02-14T20:07:32.967Z,49.40
2019-02-14T20:10:00.366Z,49.60
2019-02-14T20:12:27.568Z,49.90
2019-02-14T20:14:55.817Z,49.50
2019-02-14T20:17:24.189Z,49.40
2019-02-14T20:19:52.435Z,49.70
2019-02-14T20:22:19.616Z,49.90
2019-02-14T20:24:47.163Z,50.00
2019-02-14T20:27:14.396Z,50.30
2019-02-14T20:29:41.955Z,50.40
2019-02-14T20:32:09.089Z,50.40
2019-02-14T20:34:36.263Z,50.90
2019-02-14T20:37:03.497Z,50.80
2019-02-14T20:39:30.787Z,51.10
2019-02-14T20:41:57.991Z,51.00
2019-02-14T20:44:26.384Z,50.30
2019-02-14T20:46:53.611Z,50.20
2019-02-14T20:49:39.166Z,50.30
2019-02-14T20:52:06.462Z,50.40
2019-02-14T20:54:33.979Z,50.30
2019-02-14T20:57:01.252Z,50.10
2019-02-14T20:59:28.532Z,50.40
2019-02-14T21:01:55.709Z,50.90
2019-02-14T21:04:22.969Z,51.30
2019-02-14T21:06:52.001Z,51.50
2019-02-14T21:09:19.354Z,51.60
2019-02-14T21:11:54.451Z,51.60
2019-02-14T21:14:17.588Z,51.60
2019-02-14T21:16:44.902Z,51.80
2019-02-14T21:19:12.031Z,51.70
2019-02-14T21:21:39.249Z,51.90
2019-02-14T21:24:06.401Z,52.10
2019-02-14T21:26:33.968Z,52.10
2019-02-14T21:29:01.319Z,52.20
2019-02-14T21:31:28.546Z,52.30
2019-02-14T21:33:55.821Z,52.30
2019-02-14T21:36:23.032Z,52.50
2019-02-14T21:38:50.160Z,52.50
2019-02-14T21:41:17.423Z,52.60
2019-02-14T21:43:44.652Z,52.60
2019-02-14T21:46:13.502Z,52.50
2019-02-14T21:48:40.716Z,52.40
2019-02-14T21:51:08.123Z,52.40
2019-02-14T21:53:36.374Z,52.20
2019-02-14T21:56:03.673Z,52.10
2019-02-14T21:58:31.153Z,52.10
2019-02-14T22:00:58.477Z,52.20
2019-02-14T22:03:25.799Z,52.20
2019-02-14T22:05:53.089Z,52.30
2019-02-14T22:08:20.410Z,52.40
2019-02-14T22:10:47.740Z,52.40
2019-02-14T22:13:14.873Z,52.40
2019-02-14T22:15:42.064Z,52.60
2019-02-14T22:18:09.847Z,52.80
2019-02-14T22:20:36.980Z,52.80
2019-02-14T22:23:04.211Z,52.90
2019-02-14T22:25:31.380Z,52.90
2019-02-14T22:27:58.487Z,53.10
2019-02-14T22:30:25.845Z,53.20
2019-02-14T22:32:52.976Z,53.10
2019-02-14T22:35:20.105Z,53.00
2019-02-14T22:37:47.199Z,53.00
2019-02-14T22:40:14.355Z,52.90
2019-02-14T22:42:47.158Z,52.80
2019-02-14T22:45:10.527Z,52.80
2019-02-14T22:47:37.636Z,52.70
2019-02-14T22:50:04.819Z,52.80
2019-02-14T22:52:31.905Z,52.80
2019-02-14T22:54:59.082Z,52.80
2019-02-14T22:57:26.167Z,52.80
2019-02-14T22:59:53.275Z,52.80
2019-02-14T23:02:20.396Z,53.00
2019-02-14T23:04:47.499Z,53.10
2019-02-14T23:07:14.613Z,53.10
2019-02-14T23:09:41.744Z,53.10
2019-02-14T23:12:08.934Z,53.10
2019-02-14T23:14:36.047Z,52.90
2019-02-14T23:17:03.215Z,52.90
2019-02-14T23:19:30.447Z,52.90
2019-02-14T23:21:57.586Z,52.70
2019-02-14T23:24:24.722Z,52.60
2019-02-14T23:26:51.973Z,52.50
2019-02-14T23:29:19.132Z,52.60
2019-02-14T23:31:46.322Z,52.60
2019-02-14T23:34:13.444Z,52.70
2019-02-14T23:36:40.529Z,52.90
2019-02-14T23:39:07.655Z,52.90
2019-02-14T23:41:35.785Z,52.90
2019-02-14T23:44:03.088Z,52.90
2019-02-14T23:46:30.215Z,53.00
2019-02-14T23:48:57.370Z,52.90
2019-02-14T23:51:24.547Z,52.90
2019-02-14T23:53:52.097Z,53.70
2019-02-14T23:56:19.206Z,53.00
2019-02-14T23:58:46.363Z,52.90
